createdAt,value
2022-12-25T00:01:43.532Z,101359.25
2022-12-25T00:04:10.162Z,101347.97
2022-12-25T00:06:37.071Z,101355.91
2022-12-25T00:09:03.769Z,101352.44
2022-12-25T00:11:30.404Z,101351.59
2022-12-25T00:13:56.980Z,101358.72
2022-12-25T00:16:25.374Z,101361.34
2022-12-25T00:18:52.941Z,101363.19
2022-12-25T00:21:20.668Z,101365.00
2022-12-25T00:23:47.447Z,101367.00
2022-12-25T00:26:17.696Z,101370.47
2022-12-25T00:28:44.976Z,101374.78
2022-12-25T00:31:16.735Z,101372.31
2022-12-25T00:33:45.247Z,101372.31
2022-12-25T00:36:13.679Z,101375.75
2022-12-25T00:38:40.848Z,101382.75
2022-12-25T00:41:09.689Z,101380.91
2022-12-25T00:43:36.664Z,101387.84
2022-12-25T00:46:05.241Z,101382.75
2022-12-25T00:48:32.620Z,101388.69
2022-12-25T00:51:02.129Z,101389.38
2022-12-25T00:53:29.893Z,101393.69
2022-12-25T00:55:58.869Z,101400.78
2022-12-25T00:58:26.214Z,101403.44
2022-12-25T01:00:52.812Z,101409.56
2022-12-25T01:03:19.561Z,101398.28
2022-12-25T01:05:58.315Z,101406.25
2022-12-25T01:08:25.205Z,101411.53
2022-12-25T01:10:59.391Z,101411.53
2022-12-25T01:13:26.393Z,101413.22
2022-12-25T01:15:54.292Z,101414.19
2022-12-25T01:18:22.511Z,101408.06
2022-12-25T01:20:49.154Z,101416.84
2022-12-25T01:23:15.929Z,101416.19
2022-12-25T01:25:42.582Z,101413.38
2022-12-25T01:28:09.195Z,101418.69
2022-12-25T01:30:35.748Z,101425.63
2022-12-25T01:33:02.383Z,101419.81
2022-12-25T01:35:28.970Z,101419.81
2022-12-25T01:37:55.593Z,101417.19
2022-12-25T01:40:22.342Z,101425.13
2022-12-25T01:42:48.894Z,101427.78
2022-12-25T01:45:30.766Z,101432.22
2022-12-25T01:47:57.996Z,101436.03
2022-12-25T01:50:24.782Z,101434.38
2022-12-25T01:52:51.966Z,101434.38
2022-12-25T01:55:18.539Z,101443.13
2022-12-25T01:57:45.570Z,101450.94
2022-12-25T02:00:13.149Z,101455.22
2022-12-25T02:02:40.951Z,101456.06
2022-12-25T02:05:33.950Z,101458.72
2022-12-25T02:08:12.776Z,101469.16
2022-12-25T02:10:39.345Z,101460.38
2022-12-25T02:13:07.043Z,101469.00
2022-12-25T02:15:48.369Z,101465.38
2022-12-25T02:18:32.036Z,101464.53
2022-12-25T02:21:09.760Z,101472.47
2022-12-25T02:23:48.960Z,101472.47
2022-12-25T02:26:45.218Z,101472.63
2022-12-25T02:29:23.339Z,101472.81
2022-12-25T02:32:21.988Z,101469.16
2022-12-25T02:35:14.511Z,101471.97
2022-12-25T02:37:56.891Z,101473.78
2022-12-25T02:40:30.813Z,101473.78
2022-12-25T02:43:20.049Z,101465.81
2022-12-25T02:46:18.008Z,101481.72
2022-12-25T02:49:16.301Z,101487.03
2022-12-25T02:52:12.560Z,101495.97
2022-12-25T02:55:07.382Z,101484.56
2022-12-25T02:58:06.490Z,101483.88
2022-12-25T03:00:54.534Z,101483.88
2022-12-25T03:03:41.368Z,101492.66
2022-12-25T03:06:27.182Z,101481.38
2022-12-25T03:09:15.869Z,101484.03
2022-12-25T03:11:44.115Z,101466.16
2022-12-25T03:14:29.228Z,101483.88
2022-12-25T03:16:57.381Z,101472.44
2022-12-25T03:19:45.133Z,101468.66
2022-12-25T03:22:50.367Z,101466.66
2022-12-25T03:25:36.543Z,101473.78
2022-12-25T03:28:04.061Z,101464.88
2022-12-25T03:31:06.922Z,101464.88
2022-12-25T03:34:23.145Z,101470.97
2022-12-25T03:37:25.366Z,101482.56
2022-12-25T03:40:22.099Z,101492.16
2022-12-25T03:43:12.752Z,101486.88
2022-12-25T03:46:05.035Z,101479.91
2022-12-25T03:48:52.607Z,101492.16
2022-12-25T03:51:41.324Z,101496.81
2022-12-25T03:54:27.982Z,101508.22
2022-12-25T03:57:14.224Z,101508.41
2022-12-25T03:59:59.445Z,101512.00
2022-12-25T04:02:45.035Z,101513.69
2022-12-25T04:05:30.333Z,101514.66
2022-12-25T04:08:15.756Z,101512.16
2022-12-25T04:11:00.924Z,101516.50
2022-12-25T04:13:46.045Z,101510.50
2022-12-25T04:16:31.691Z,101513.16
2022-12-25T04:19:17.054Z,101517.81
2022-12-25T04:22:02.188Z,101530.91
2022-12-25T04:24:47.499Z,101529.41
2022-12-25T04:27:32.742Z,101528.41
2022-12-25T04:30:18.007Z,101536.34
2022-12-25T04:33:03.277Z,101535.50
2022-12-25T04:35:48.641Z,101528.56
2022-12-25T04:38:15.216Z,101535.50
2022-12-25T04:40:41.768Z,101529.06
2022-12-25T04:43:08.378Z,101527.41
2022-12-25T04:45:34.927Z,101524.59
2022-12-25T04:48:01.507Z,101530.72
2022-12-25T04:50:28.112Z,101535.03
2022-12-25T04:52:54.742Z,101535.03
2022-12-25T04:55:21.353Z,101533.22
2022-12-25T04:57:48.032Z,101541.31
2022-12-25T05:00:14.997Z,101538.50
2022-12-25T05:02:41.709Z,101535.84
2022-12-25T05:05:08.527Z,101541.16
2022-12-25T05:07:35.126Z,101537.53
2022-12-25T05:10:01.793Z,101537.69
2022-12-25T05:12:28.392Z,101544.66
2022-12-25T05:14:55.019Z,101543.00
2022-12-25T05:17:21.612Z,101558.03
2022-12-25T05:19:48.184Z,101555.38
2022-12-25T05:22:14.849Z,101550.25
2022-12-25T05:24:41.389Z,101556.38
2022-12-25T05:27:08.025Z,101563.50
2022-12-25T05:29:34.547Z,101554.72
2022-12-25T05:32:02.151Z,101548.59
2022-12-25T05:34:28.721Z,101552.25
2022-12-25T05:36:56.633Z,101546.09
2022-12-25T05:39:23.787Z,101541.66
2022-12-25T05:41:50.359Z,101545.28
2022-12-25T05:44:16.991Z,101549.75
2022-12-25T05:46:43.604Z,101544.44
2022-12-25T05:49:10.407Z,101554.19
2022-12-25T05:51:37.010Z,101541.94
2022-12-25T05:54:03.793Z,101534.84
2022-12-25T05:56:30.381Z,101538.47
2022-12-25T05:58:56.958Z,101539.31
2022-12-25T06:01:27.384Z,101533.84
2022-12-25T06:03:54.348Z,101543.44
2022-12-25T06:06:20.995Z,101544.28
2022-12-25T06:08:47.605Z,101549.59
2022-12-25T06:11:15.098Z,101553.88
2022-12-25T06:13:41.797Z,101544.13
2022-12-25T06:16:10.086Z,101543.94
2022-12-25T06:18:42.408Z,101540.66
2022-12-25T06:21:11.370Z,101539.00
2022-12-25T06:23:38.744Z,101538.00
2022-12-25T06:26:11.598Z,101530.22
2022-12-25T06:28:38.326Z,101529.41
2022-12-25T06:31:11.839Z,101527.72
2022-12-25T06:33:38.795Z,101530.34
2022-12-25T06:36:11.362Z,101527.72
2022-12-25T06:38:38.264Z,101536.66
2022-12-25T06:41:10.407Z,101537.50
2022-12-25T06:43:37.778Z,101533.34
2022-12-25T06:46:09.888Z,101530.69
2022-12-25T06:48:37.889Z,101533.34
2022-12-25T06:51:05.686Z,101529.84
2022-12-25T06:53:39.830Z,101539.44
2022-12-25T06:56:09.174Z,101544.75
2022-12-25T06:58:35.799Z,101543.94
2022-12-25T07:01:15.151Z,101547.72
2022-12-25T07:03:43.568Z,101553.69
2022-12-25T07:06:10.167Z,101555.50
2022-12-25T07:08:36.864Z,101551.03
2022-12-25T07:11:03.566Z,101559.00
2022-12-25T07:13:30.414Z,101580.03
2022-12-25T07:15:58.465Z,101587.97
2022-12-25T07:18:25.597Z,101588.78
2022-12-25T07:20:52.262Z,101584.31
2022-12-25T07:23:18.887Z,101579.03
2022-12-25T07:25:53.679Z,101577.38
2022-12-25T07:28:20.273Z,101579.88
2022-12-25T07:30:47.168Z,101583.34
2022-12-25T07:33:13.786Z,101582.53
2022-12-25T07:35:40.703Z,101590.47
2022-12-25T07:38:07.344Z,101580.84
2022-12-25T07:40:33.942Z,101587.97
2022-12-25T07:43:00.531Z,101606.38
2022-12-25T07:45:27.211Z,101606.22
2022-12-25T07:47:55.204Z,101602.88
2022-12-25T07:50:22.049Z,101608.16
2022-12-25T07:52:48.697Z,101613.63
2022-12-25T07:55:15.274Z,101598.72
2022-12-25T07:57:41.860Z,101598.72
2022-12-25T08:00:09.567Z,101602.22
2022-12-25T08:02:36.250Z,101595.22
2022-12-25T08:05:03.035Z,101585.63
2022-12-25T08:07:29.605Z,101589.28
2022-12-25T08:09:56.168Z,101583.97
2022-12-25T08:12:22.762Z,101590.09
2022-12-25T08:14:49.340Z,101587.63
2022-12-25T08:17:15.949Z,101584.97
2022-12-25T08:19:42.617Z,101587.75
2022-12-25T08:22:09.189Z,101580.63
2022-12-25T08:24:35.786Z,101574.53
2022-12-25T08:27:03.265Z,101577.97
2022-12-25T08:29:29.984Z,101581.63
2022-12-25T08:31:57.051Z,101586.78
2022-12-25T08:34:23.629Z,101575.19
2022-12-25T08:36:50.200Z,101586.63
2022-12-25T08:39:16.789Z,101579.53
2022-12-25T08:41:43.417Z,101575.88
2022-12-25T08:44:13.541Z,101581.03
2022-12-25T08:46:40.564Z,101569.44
2022-12-25T08:49:07.239Z,101579.88
2022-12-25T08:51:34.318Z,101558.84
2022-12-25T08:54:01.229Z,101563.97
2022-12-25T08:56:28.216Z,101563.00
2022-12-25T08:58:54.831Z,101559.50
2022-12-25T09:01:21.497Z,101559.50
2022-12-25T09:03:48.253Z,101556.84
2022-12-25T09:06:16.404Z,101548.91
2022-12-25T09:08:48.789Z,101545.44
2022-12-25T09:11:17.130Z,101544.59
2022-12-25T09:13:43.824Z,101545.59
2022-12-25T09:16:12.836Z,101537.81
2022-12-25T09:18:39.549Z,101534.31
2022-12-25T09:21:08.046Z,101536.00
2022-12-25T09:23:34.723Z,101535.16
2022-12-25T09:26:02.954Z,101529.19
2022-12-25T09:28:29.757Z,101526.38
2022-12-25T09:30:56.795Z,101530.69
2022-12-25T09:33:23.506Z,101531.66
2022-12-25T09:36:02.988Z,101511.47
2022-12-25T09:38:30.422Z,101519.25
2022-12-25T09:41:09.092Z,101518.59
2022-12-25T09:43:42.644Z,101522.91
2022-12-25T09:46:15.538Z,101520.25
2022-12-25T09:48:47.982Z,101515.78
2022-12-25T09:51:16.786Z,101506.16
2022-12-25T09:53:52.043Z,101516.63
2022-12-25T09:56:25.624Z,101517.44
2022-12-25T09:58:53.303Z,101514.63
2022-12-25T10:01:43.262Z,101511.81
2022-12-25T10:04:39.084Z,101509.16
2022-12-25T10:07:36.029Z,101508.34
2022-12-25T10:10:11.596Z,101504.88
2022-12-25T10:12:44.091Z,101500.41
2022-12-25T10:15:19.080Z,101505.56
2022-12-25T10:17:51.907Z,101513.50
2022-12-25T10:20:35.178Z,101516.16
2022-12-25T10:23:04.318Z,101516.16
2022-12-25T10:25:30.949Z,101518.81
2022-12-25T10:28:09.959Z,101510.84
2022-12-25T10:30:36.682Z,101514.47
2022-12-25T10:33:03.332Z,101506.53
2022-12-25T10:35:31.488Z,101494.97
2022-12-25T10:38:15.885Z,101482.69
2022-12-25T10:41:19.775Z,101468.63
2022-12-25T10:43:54.203Z,101472.94
2022-12-25T10:46:22.453Z,101475.56
2022-12-25T10:48:59.073Z,101470.28
2022-12-25T10:51:31.250Z,101464.13
2022-12-25T10:53:58.002Z,101462.50
2022-12-25T10:56:24.659Z,101456.19
2022-12-25T10:58:51.296Z,101459.69
2022-12-25T11:01:18.048Z,101471.13
2022-12-25T11:03:47.424Z,101480.88
2022-12-25T11:06:29.326Z,101480.88
2022-12-25T11:08:57.961Z,101484.38
2022-12-25T11:11:25.182Z,101478.06
2022-12-25T11:13:56.816Z,101480.03
2022-12-25T11:16:28.436Z,101483.38
2022-12-25T11:18:55.474Z,101489.31
2022-12-25T11:21:23.617Z,101490.16
2022-12-25T11:23:58.341Z,101482.22
2022-12-25T11:26:25.386Z,101485.03
2022-12-25T11:28:52.508Z,101470.78
2022-12-25T11:31:36.853Z,101476.91
2022-12-25T11:34:12.141Z,101473.59
2022-12-25T11:36:48.969Z,101462.19
2022-12-25T11:39:26.992Z,101456.88
2022-12-25T11:41:56.996Z,101451.59
2022-12-25T11:44:51.323Z,101456.88
2022-12-25T11:47:28.407Z,101459.69
2022-12-25T11:50:01.056Z,101457.03
2022-12-25T11:52:30.430Z,101453.53
2022-12-25T11:55:29.446Z,101450.09
2022-12-25T11:57:59.992Z,101439.66
2022-12-25T12:00:27.719Z,101422.91
2022-12-25T12:03:13.881Z,101406.22
2022-12-25T12:06:19.399Z,101384.19
2022-12-25T12:08:48.049Z,101377.38
2022-12-25T12:11:28.067Z,101374.75
2022-12-25T12:14:20.248Z,101378.22
2022-12-25T12:16:46.867Z,101382.69
2022-12-25T12:19:23.524Z,101393.13
2022-12-25T12:21:50.379Z,101380.88
2022-12-25T12:24:21.977Z,101370.28
2022-12-25T12:27:07.130Z,101379.03
2022-12-25T12:29:44.610Z,101383.19
2022-12-25T12:32:24.488Z,101374.44
2022-12-25T12:34:51.093Z,101368.94
2022-12-25T12:37:25.569Z,101359.19
2022-12-25T12:39:54.279Z,101344.00
2022-12-25T12:42:25.972Z,101335.19
2022-12-25T12:44:54.912Z,101339.50
2022-12-25T12:47:38.124Z,101341.34
2022-12-25T12:50:05.659Z,101342.16
2022-12-25T12:52:37.743Z,101351.94
2022-12-25T12:55:07.297Z,101352.09
2022-12-25T12:57:39.587Z,101355.53
2022-12-25T13:00:11.179Z,101353.25
2022-12-25T13:02:55.909Z,101353.06
2022-12-25T13:05:42.451Z,101348.75
2022-12-25T13:08:33.829Z,101346.09
2022-12-25T13:11:18.687Z,101350.59
2022-12-25T13:13:46.143Z,101353.41
2022-12-25T13:16:25.031Z,101357.22
2022-12-25T13:18:53.015Z,101364.00
2022-12-25T13:21:25.997Z,101360.50
2022-12-25T13:24:01.105Z,101358.00
2022-12-25T13:26:28.367Z,101350.22
2022-12-25T13:28:56.205Z,101342.47
2022-12-25T13:31:26.389Z,101337.19
2022-12-25T13:33:58.266Z,101339.97
2022-12-25T13:36:26.683Z,101344.28
2022-12-25T13:38:55.769Z,101335.34
2022-12-25T13:41:46.278Z,101340.63
2022-12-25T13:44:24.821Z,101332.69
2022-12-25T13:46:51.473Z,101331.69
2022-12-25T13:49:23.076Z,101325.44
2022-12-25T13:51:50.565Z,101338.66
2022-12-25T13:54:18.108Z,101339.47
2022-12-25T13:56:51.001Z,101318.28
2022-12-25T13:59:20.030Z,101310.19
2022-12-25T14:01:48.758Z,101299.59
2022-12-25T14:04:17.911Z,101296.13
2022-12-25T14:06:44.550Z,101299.59
2022-12-25T14:09:12.551Z,101292.66
2022-12-25T14:11:40.793Z,101282.06
2022-12-25T14:14:22.425Z,101271.47
2022-12-25T14:16:50.490Z,101271.47
2022-12-25T14:19:31.584Z,101265.31
2022-12-25T14:22:01.543Z,101269.66
2022-12-25T14:24:30.263Z,101274.94
2022-12-25T14:27:02.122Z,101291.81
2022-12-25T14:29:37.017Z,101291.81
2022-12-25T14:32:05.867Z,101294.28
2022-12-25T14:34:32.978Z,101291.00
2022-12-25T14:37:00.663Z,101287.66
2022-12-25T14:39:36.499Z,101283.06
2022-12-25T14:42:20.647Z,101283.38
2022-12-25T14:45:22.234Z,101286.84
2022-12-25T14:47:53.658Z,101289.50
2022-12-25T14:50:38.592Z,101293.13
2022-12-25T14:53:07.084Z,101292.31
2022-12-25T14:55:33.769Z,101287.81
2022-12-25T14:58:04.616Z,101287.81
2022-12-25T15:00:35.448Z,101292.97
2022-12-25T15:03:05.060Z,101287.66
2022-12-25T15:05:37.628Z,101273.44
2022-12-25T15:08:13.155Z,101261.88
2022-12-25T15:13:28.019Z,101256.56
2022-12-25T15:15:58.791Z,101258.22
2022-12-25T15:18:28.184Z,101255.56
2022-12-25T15:20:56.256Z,101247.94
2022-12-25T15:23:22.962Z,101243.81
2022-12-25T15:25:51.097Z,101232.06
2022-12-25T15:28:18.122Z,101221.47
2022-12-25T15:30:44.734Z,101211.72
2022-12-25T15:33:15.889Z,101201.94
2022-12-25T15:35:44.375Z,101202.75
2022-12-25T15:38:12.739Z,101203.75
2022-12-25T15:40:40.295Z,101206.41
2022-12-25T15:43:14.639Z,101200.28
2022-12-25T15:45:49.024Z,101204.09
2022-12-25T15:48:15.596Z,101196.97
2022-12-25T15:50:42.741Z,101202.28
2022-12-25T15:53:10.855Z,101206.72
2022-12-25T15:55:37.734Z,101198.94
2022-12-25T15:58:04.407Z,101183.06
2022-12-25T16:00:31.001Z,101186.72
2022-12-25T16:02:57.686Z,101192.69
2022-12-25T16:05:24.933Z,101191.16
2022-12-25T16:07:51.501Z,101184.06
2022-12-25T16:10:19.733Z,101182.09
2022-12-25T16:12:46.652Z,101186.38
2022-12-25T16:15:14.420Z,101181.09
2022-12-25T16:17:41.061Z,101173.78
2022-12-25T16:20:08.724Z,101180.75
2022-12-25T16:22:39.960Z,101182.41
2022-12-25T16:25:18.372Z,101171.00
2022-12-25T16:27:45.167Z,101169.81
2022-12-25T16:30:15.046Z,101163.72
2022-12-25T16:32:45.313Z,101159.22
2022-12-25T16:35:12.168Z,101161.88
2022-12-25T16:37:39.051Z,101155.94
2022-12-25T16:40:07.539Z,101154.09
2022-12-25T16:42:34.112Z,101152.44
2022-12-25T16:45:00.816Z,101150.63
2022-12-25T16:47:27.426Z,101145.34
2022-12-25T16:49:54.077Z,101148.00
2022-12-25T16:52:20.654Z,101142.84
2022-12-25T16:54:47.233Z,101131.44
2022-12-25T16:57:14.400Z,101128.78
2022-12-25T16:59:41.717Z,101118.34
2022-12-25T17:02:11.673Z,101127.97
2022-12-25T17:04:39.387Z,101128.13
2022-12-25T17:07:05.958Z,101122.00
2022-12-25T17:09:32.543Z,101112.41
2022-12-25T17:11:59.139Z,101107.13
2022-12-25T17:14:25.756Z,101098.34
2022-12-25T17:16:52.488Z,101095.84
2022-12-25T17:19:21.183Z,101085.25
2022-12-25T17:21:47.960Z,101075.50
2022-12-25T17:24:15.136Z,101083.28
2022-12-25T17:26:43.879Z,101070.88
2022-12-25T17:29:11.756Z,101055.78
2022-12-25T17:31:40.638Z,101051.19
2022-12-25T17:34:09.024Z,101042.41
2022-12-25T17:36:36.187Z,101045.69
2022-12-25T17:39:05.127Z,101040.38
2022-12-25T17:41:32.561Z,101028.81
2022-12-25T17:43:59.201Z,101023.53
2022-12-25T17:46:27.945Z,101018.25
2022-12-25T17:48:56.716Z,101010.47
2022-12-25T17:51:25.453Z,101000.66
2022-12-25T17:53:55.188Z,101002.34
2022-12-25T17:56:22.973Z,101005.97
2022-12-25T17:58:51.633Z,101006.81
2022-12-25T18:01:18.855Z,100997.06
2022-12-25T18:03:46.081Z,100993.56
2022-12-25T18:06:15.984Z,100980.31
2022-12-25T18:08:43.926Z,100975.19
2022-12-25T18:11:15.261Z,100967.91
2022-12-25T18:13:44.811Z,100954.00
2022-12-25T18:16:12.843Z,100948.72
2022-12-25T18:18:39.718Z,100962.63
2022-12-25T18:21:06.814Z,100976.84
2022-12-25T18:23:33.720Z,100975.19
2022-12-25T18:26:05.077Z,100967.25
2022-12-25T18:28:32.007Z,100957.66
2022-12-25T18:30:59.147Z,100948.72
2022-12-25T18:33:26.064Z,100953.38
2022-12-25T18:35:58.346Z,100958.66
2022-12-25T18:38:24.998Z,100964.75
2022-12-25T18:40:51.706Z,100957.81
2022-12-25T18:43:18.277Z,100939.13
2022-12-25T18:45:45.105Z,100932.03
2022-12-25T18:48:11.842Z,100930.19
2022-12-25T18:50:40.369Z,100937.13
2022-12-25T18:53:07.196Z,100931.81
2022-12-25T18:55:33.866Z,100937.78
2022-12-25T18:58:00.440Z,100941.44
2022-12-25T19:00:28.100Z,100932.50
2022-12-25T19:02:58.943Z,100929.69
2022-12-25T19:05:25.999Z,100931.50
2022-12-25T19:07:52.584Z,100920.09
2022-12-25T19:10:19.432Z,100912.94
2022-12-25T19:12:46.047Z,100924.53
2022-12-25T19:15:12.772Z,100906.19
2022-12-25T19:17:39.394Z,100904.38
2022-12-25T19:20:06.559Z,100901.72
2022-12-25T19:22:33.154Z,100897.41
2022-12-25T19:24:59.723Z,100887.66
2022-12-25T19:27:26.297Z,100894.75
2022-12-25T19:29:52.864Z,100889.66
2022-12-25T19:32:19.481Z,100888.81
2022-12-25T19:34:46.111Z,100888.81
2022-12-25T19:37:12.772Z,100886.16
2022-12-25T19:39:41.250Z,100878.22
2022-12-25T19:42:07.832Z,100869.44
2022-12-25T19:44:34.829Z,100861.69
2022-12-25T19:47:01.402Z,100857.22
2022-12-25T19:49:27.979Z,100858.03
2022-12-25T19:51:54.536Z,100850.09
2022-12-25T19:54:21.165Z,100840.31
2022-12-25T19:56:49.274Z,100841.16
2022-12-25T19:59:15.871Z,100841.00
2022-12-25T20:01:42.905Z,100851.41
2022-12-25T20:04:10.399Z,100842.47
2022-12-25T20:06:40.342Z,100846.75
2022-12-25T20:09:15.059Z,100844.94
2022-12-25T20:11:43.173Z,100837.78
2022-12-25T20:14:12.734Z,100827.22
2022-12-25T20:16:40.270Z,100820.94
2022-12-25T20:19:07.434Z,100818.28
2022-12-25T20:21:34.294Z,100805.22
2022-12-25T20:24:01.048Z,100823.59
2022-12-25T20:26:30.661Z,100823.59
2022-12-25T20:28:58.457Z,100834.19
2022-12-25T20:31:30.846Z,100818.47
2022-12-25T20:33:59.545Z,100810.50
2022-12-25T20:36:29.652Z,100813.16
2022-12-25T20:38:59.360Z,100808.88
2022-12-25T20:41:27.881Z,100807.19
2022-12-25T20:43:55.686Z,100793.97
2022-12-25T20:46:22.554Z,100792.16
2022-12-25T20:48:49.385Z,100794.97
2022-12-25T20:51:18.486Z,100796.59
2022-12-25T20:53:45.970Z,100796.78
2022-12-25T20:56:14.129Z,100785.38
2022-12-25T20:58:41.066Z,100793.31
2022-12-25T21:01:10.194Z,100788.03
2022-12-25T21:03:37.012Z,100770.50
2022-12-25T21:06:03.780Z,100785.56
2022-12-25T21:08:30.701Z,100785.56
2022-12-25T21:11:00.873Z,100779.25
2022-12-25T21:13:36.079Z,100773.94
2022-12-25T21:16:05.612Z,100767.66
2022-12-25T21:18:32.359Z,100747.13
2022-12-25T21:20:59.644Z,100748.94
2022-12-25T21:23:28.980Z,100756.72
2022-12-25T21:25:55.561Z,100752.25
2022-12-25T21:28:23.291Z,100739.81
2022-12-25T21:30:50.076Z,100755.72
2022-12-25T21:33:35.202Z,100761.84
2022-12-25T21:36:09.414Z,100758.34
2022-12-25T21:38:36.294Z,100767.97
2022-12-25T21:41:07.696Z,100757.38
2022-12-25T21:43:35.008Z,100752.09
2022-12-25T21:46:05.532Z,100748.59
2022-12-25T21:48:33.313Z,100728.25
2022-12-25T21:51:27.426Z,100731.88
2022-12-25T21:53:54.128Z,100726.56
2022-12-25T21:56:20.679Z,100722.13
2022-12-25T21:58:47.329Z,100721.28
2022-12-25T22:01:16.848Z,100722.13
2022-12-25T22:03:44.284Z,100730.91
2022-12-25T22:06:44.265Z,100745.94
2022-12-25T22:09:10.886Z,100739.81
2022-12-25T22:11:55.995Z,100729.22
2022-12-25T22:14:52.904Z,100731.88
2022-12-25T22:17:47.030Z,100738.34
2022-12-25T22:20:18.505Z,100733.06
2022-12-25T22:22:45.203Z,100729.59
2022-12-25T22:25:12.393Z,100718.84
2022-12-25T22:27:39.900Z,100721.66
2022-12-25T22:30:08.857Z,100727.75
2022-12-25T22:32:35.486Z,100727.59
2022-12-25T22:35:02.387Z,100719.47
2022-12-25T22:37:29.036Z,100726.56
2022-12-25T22:39:55.638Z,100726.56
2022-12-25T22:42:22.314Z,100716.81
2022-12-25T22:44:49.198Z,100725.41
2022-12-25T22:47:15.845Z,100712.16
2022-12-25T22:49:42.444Z,100714.00
2022-12-25T22:52:09.916Z,100721.78
2022-12-25T22:54:37.324Z,100723.59
2022-12-25T22:57:04.495Z,100723.59
2022-12-25T22:59:32.730Z,100718.47
2022-12-25T23:01:59.503Z,100718.47
2022-12-25T23:04:26.268Z,100713.16
2022-12-25T23:06:52.854Z,100703.41
2022-12-25T23:09:24.845Z,100703.41
2022-12-25T23:11:51.581Z,100700.94
2022-12-25T23:14:36.831Z,100705.41
2022-12-25T23:17:03.549Z,100708.03
2022-12-25T23:19:48.711Z,100716.00
2022-12-25T23:22:34.459Z,100713.53
2022-12-25T23:25:19.867Z,100699.28
2022-12-25T23:27:46.513Z,100691.53
2022-12-25T23:30:16.993Z,100687.88
2022-12-25T23:32:44.135Z,100688.69
2022-12-25T23:35:11.450Z,100678.28
2022-12-25T23:37:38.084Z,100673.81
2022-12-25T23:40:05.323Z,100680.94
2022-12-25T23:42:31.985Z,100681.56
2022-12-25T23:44:58.566Z,100684.22
2022-12-25T23:47:25.157Z,100688.69
2022-12-25T23:49:51.751Z,100689.34
2022-12-25T23:52:18.340Z,100687.53
2022-12-25T23:54:44.907Z,100674.91
2022-12-25T23:57:11.532Z,100670.44
2022-12-25T23:59:38.162Z,100678.41
